sensor_id;sensor_type;location;lat;lon;timestamp;temperature;humidity
5192;DHT22;2615;44.524;11.284;2023-02-28T00:01:08;5.70;66.50
5192;DHT22;2615;44.524;11.284;2023-02-28T00:03:36;5.70;66.40
5192;DHT22;2615;44.524;11.284;2023-02-28T00:06:06;5.60;66.30
5192;DHT22;2615;44.524;11.284;2023-02-28T00:08:36;5.70;66.40
5192;DHT22;2615;44.524;11.284;2023-02-28T00:11:06;5.70;66.50
5192;DHT22;2615;44.524;11.284;2023-02-28T00:13:36;5.70;66.40
5192;DHT22;2615;44.524;11.284;2023-02-28T00:16:06;5.70;66.30
5192;DHT22;2615;44.524;11.284;2023-02-28T00:18:37;5.70;66.30
5192;DHT22;2615;44.524;11.284;2023-02-28T00:21:06;5.70;66.30
5192;DHT22;2615;44.524;11.284;2023-02-28T00:23:34;5.70;66.30
5192;DHT22;2615;44.524;11.284;2023-02-28T00:26:03;5.70;66.30
5192;DHT22;2615;44.524;11.284;2023-02-28T00:28:31;5.70;66.30
5192;DHT22;2615;44.524;11.284;2023-02-28T00:30:59;5.70;66.30
5192;DHT22;2615;44.524;11.284;2023-02-28T00:33:28;5.70;66.30
5192;DHT22;2615;44.524;11.284;2023-02-28T00:36:06;5.70;66.30
5192;DHT22;2615;44.524;11.284;2023-02-28T00:38:35;5.70;66.30
5192;DHT22;2615;44.524;11.284;2023-02-28T00:41:04;5.70;66.30
5192;DHT22;2615;44.524;11.284;2023-02-28T00:43:33;5.70;66.20
5192;DHT22;2615;44.524;11.284;2023-02-28T00:46:02;5.70;66.30
5192;DHT22;2615;44.524;11.284;2023-02-28T00:48:31;5.70;66.20
5192;DHT22;2615;44.524;11.284;2023-02-28T00:51:00;5.80;66.30
5192;DHT22;2615;44.524;11.284;2023-02-28T00:53:29;5.70;66.20
5192;DHT22;2615;44.524;11.284;2023-02-28T00:55:59;5.70;66.20
5192;DHT22;2615;44.524;11.284;2023-02-28T00:58:27;5.80;66.30
5192;DHT22;2615;44.524;11.284;2023-02-28T01:00:55;5.80;66.30
5192;DHT22;2615;44.524;11.284;2023-02-28T01:03:23;5.80;66.30
5192;DHT22;2615;44.524;11.284;2023-02-28T01:05:52;5.80;66.20
5192;DHT22;2615;44.524;11.284;2023-02-28T01:08:21;5.80;66.10
5192;DHT22;2615;44.524;11.284;2023-02-28T01:10:50;5.80;66.10
5192;DHT22;2615;44.524;11.284;2023-02-28T01:13:19;5.80;66.10
5192;DHT22;2615;44.524;11.284;2023-02-28T01:15:50;5.70;65.90
5192;DHT22;2615;44.524;11.284;2023-02-28T01:18:19;5.70;66.00
5192;DHT22;2615;44.524;11.284;2023-02-28T01:20:47;5.80;66.10
5192;DHT22;2615;44.524;11.284;2023-02-28T01:23:15;5.80;66.00
5192;DHT22;2615;44.524;11.284;2023-02-28T01:25:44;5.80;66.00
5192;DHT22;2615;44.524;11.284;2023-02-28T01:28:14;5.80;66.00
5192;DHT22;2615;44.524;11.284;2023-02-28T01:30:42;5.80;66.00
5192;DHT22;2615;44.524;11.284;2023-02-28T01:33:10;5.80;66.00
5192;DHT22;2615;44.524;11.284;2023-02-28T01:35:38;5.80;65.90
5192;DHT22;2615;44.524;11.284;2023-02-28T01:38:06;5.80;65.90
5192;DHT22;2615;44.524;11.284;2023-02-28T01:40:48;5.80;65.90
5192;DHT22;2615;44.524;11.284;2023-02-28T01:43:21;5.80;65.80
5192;DHT22;2615;44.524;11.284;2023-02-28T01:45:50;5.80;65.80
5192;DHT22;2615;44.524;11.284;2023-02-28T01:48:18;5.80;65.80
5192;DHT22;2615;44.524;11.284;2023-02-28T01:50:47;5.80;65.70
5192;DHT22;2615;44.524;11.284;2023-02-28T01:53:19;5.80;65.70
5192;DHT22;2615;44.524;11.284;2023-02-28T01:55:51;5.70;65.60
5192;DHT22;2615;44.524;11.284;2023-02-28T01:58:21;5.70;65.50
5192;DHT22;2615;44.524;11.284;2023-02-28T02:00:49;5.70;65.50
5192;DHT22;2615;44.524;11.284;2023-02-28T02:03:19;5.70;65.50
5192;DHT22;2615;44.524;11.284;2023-02-28T02:05:48;5.70;65.50
5192;DHT22;2615;44.524;11.284;2023-02-28T02:08:19;5.70;65.50
5192;DHT22;2615;44.524;11.284;2023-02-28T02:10:50;5.70;65.50
5192;DHT22;2615;44.524;11.284;2023-02-28T02:13:46;5.70;65.40
5192;DHT22;2615;44.524;11.284;2023-02-28T02:16:34;5.60;65.30
5192;DHT22;2615;44.524;11.284;2023-02-28T02:19:20;5.60;65.40
5192;DHT22;2615;44.524;11.284;2023-02-28T02:22:20;5.60;65.30
5192;DHT22;2615;44.524;11.284;2023-02-28T02:25:26;5.60;65.40
5192;DHT22;2615;44.524;11.284;2023-02-28T02:28:22;5.60;65.30
5192;DHT22;2615;44.524;11.284;2023-02-28T02:37:08;5.50;65.20
5192;DHT22;2615;44.524;11.284;2023-02-28T02:39:43;5.50;65.20
5192;DHT22;2615;44.524;11.284;2023-02-28T02:42:18;5.50;65.20
5192;DHT22;2615;44.524;11.284;2023-02-28T02:44:50;5.50;65.10
5192;DHT22;2615;44.524;11.284;2023-02-28T02:47:22;5.50;65.10
5192;DHT22;2615;44.524;11.284;2023-02-28T02:49:55;5.50;65.10
5192;DHT22;2615;44.524;11.284;2023-02-28T02:52:29;5.50;65.00
5192;DHT22;2615;44.524;11.284;2023-02-28T02:55:00;5.40;64.90
5192;DHT22;2615;44.524;11.284;2023-02-28T02:57:32;5.40;65.00
5192;DHT22;2615;44.524;11.284;2023-02-28T03:00:03;5.40;65.00
5192;DHT22;2615;44.524;11.284;2023-02-28T03:02:35;5.40;65.00
5192;DHT22;2615;44.524;11.284;2023-02-28T03:05:08;5.40;65.10
5192;DHT22;2615;44.524;11.284;2023-02-28T03:07:41;5.40;65.00
5192;DHT22;2615;44.524;11.284;2023-02-28T03:10:33;5.50;65.00
5192;DHT22;2615;44.524;11.284;2023-02-28T03:13:19;5.40;64.90
5192;DHT22;2615;44.524;11.284;2023-02-28T03:16:10;5.40;64.80
5192;DHT22;2615;44.524;11.284;2023-02-28T03:18:50;5.40;64.80
5192;DHT22;2615;44.524;11.284;2023-02-28T03:21:24;5.40;64.80
5192;DHT22;2615;44.524;11.284;2023-02-28T03:24:04;5.40;64.80
5192;DHT22;2615;44.524;11.284;2023-02-28T03:26:38;5.40;64.80
5192;DHT22;2615;44.524;11.284;2023-02-28T03:29:12;5.40;64.70
5192;DHT22;2615;44.524;11.284;2023-02-28T03:31:47;5.40;65.50
5192;DHT22;2615;44.524;11.284;2023-02-28T03:34:21;5.40;64.70
5192;DHT22;2615;44.524;11.284;2023-02-28T03:36:55;5.50;64.70
5192;DHT22;2615;44.524;11.284;2023-02-28T03:39:30;5.50;64.70
5192;DHT22;2615;44.524;11.284;2023-02-28T03:42:05;5.50;64.60
5192;DHT22;2615;44.524;11.284;2023-02-28T03:44:37;5.40;64.50
5192;DHT22;2615;44.524;11.284;2023-02-28T03:47:09;5.40;64.50
5192;DHT22;2615;44.524;11.284;2023-02-28T03:49:41;5.40;64.60
5192;DHT22;2615;44.524;11.284;2023-02-28T03:52:11;5.50;64.60
5192;DHT22;2615;44.524;11.284;2023-02-28T03:54:44;5.50;64.50
5192;DHT22;2615;44.524;11.284;2023-02-28T03:57:20;5.50;64.50
5192;DHT22;2615;44.524;11.284;2023-02-28T03:59:54;5.50;64.40
5192;DHT22;2615;44.524;11.284;2023-02-28T04:02:24;5.50;64.40
5192;DHT22;2615;44.524;11.284;2023-02-28T04:04:52;5.50;64.30
5192;DHT22;2615;44.524;11.284;2023-02-28T04:07:20;5.50;64.20
5192;DHT22;2615;44.524;11.284;2023-02-28T04:09:50;5.50;64.20
5192;DHT22;2615;44.524;11.284;2023-02-28T04:12:18;5.50;64.20
5192;DHT22;2615;44.524;11.284;2023-02-28T04:14:46;5.50;64.20
5192;DHT22;2615;44.524;11.284;2023-02-28T04:17:14;5.50;64.20
5192;DHT22;2615;44.524;11.284;2023-02-28T04:19:42;5.50;64.20
5192;DHT22;2615;44.524;11.284;2023-02-28T04:22:10;5.50;64.20
5192;DHT22;2615;44.524;11.284;2023-02-28T04:24:38;5.50;64.20
5192;DHT22;2615;44.524;11.284;2023-02-28T04:27:09;5.50;64.20
5192;DHT22;2615;44.524;11.284;2023-02-28T04:29:37;5.50;64.10
5192;DHT22;2615;44.524;11.284;2023-02-28T04:32:05;5.50;64.20
5192;DHT22;2615;44.524;11.284;2023-02-28T04:34:34;5.50;64.20
5192;DHT22;2615;44.524;11.284;2023-02-28T04:37:02;5.50;64.10
5192;DHT22;2615;44.524;11.284;2023-02-28T04:39:40;5.50;64.20
5192;DHT22;2615;44.524;11.284;2023-02-28T04:42:10;5.50;64.20
5192;DHT22;2615;44.524;11.284;2023-02-28T04:44:38;5.50;64.20
5192;DHT22;2615;44.524;11.284;2023-02-28T04:47:06;5.50;64.20
5192;DHT22;2615;44.524;11.284;2023-02-28T04:49:35;5.50;64.20
5192;DHT22;2615;44.524;11.284;2023-02-28T04:52:03;5.50;64.20
5192;DHT22;2615;44.524;11.284;2023-02-28T04:54:31;5.50;64.20
5192;DHT22;2615;44.524;11.284;2023-02-28T04:56:59;5.50;64.20
5192;DHT22;2615;44.524;11.284;2023-02-28T04:59:29;5.50;64.20
5192;DHT22;2615;44.524;11.284;2023-02-28T05:01:57;5.50;64.10
5192;DHT22;2615;44.524;11.284;2023-02-28T05:04:25;5.50;64.20
5192;DHT22;2615;44.524;11.284;2023-02-28T05:06:53;5.50;64.20
5192;DHT22;2615;44.524;11.284;2023-02-28T05:09:22;5.50;64.20
5192;DHT22;2615;44.524;11.284;2023-02-28T05:11:50;5.50;64.20
5192;DHT22;2615;44.524;11.284;2023-02-28T05:14:18;5.50;64.20
5192;DHT22;2615;44.524;11.284;2023-02-28T05:16:47;5.40;64.10
5192;DHT22;2615;44.524;11.284;2023-02-28T05:19:15;5.40;64.10
5192;DHT22;2615;44.524;11.284;2023-02-28T05:21:50;5.40;64.10
5192;DHT22;2615;44.524;11.284;2023-02-28T05:24:18;5.40;64.20
5192;DHT22;2615;44.524;11.284;2023-02-28T05:26:50;5.40;64.10
5192;DHT22;2615;44.524;11.284;2023-02-28T05:29:19;5.40;64.10
5192;DHT22;2615;44.524;11.284;2023-02-28T05:31:49;5.40;64.20
5192;DHT22;2615;44.524;11.284;2023-02-28T05:34:17;5.40;64.20
5192;DHT22;2615;44.524;11.284;2023-02-28T05:36:45;5.50;64.30
5192;DHT22;2615;44.524;11.284;2023-02-28T05:39:13;5.50;64.30
5192;DHT22;2615;44.524;11.284;2023-02-28T05:41:42;5.50;64.30
5192;DHT22;2615;44.524;11.284;2023-02-28T05:44:11;5.50;64.30
5192;DHT22;2615;44.524;11.284;2023-02-28T05:46:40;5.50;64.20
5192;DHT22;2615;44.524;11.284;2023-02-28T05:49:09;5.50;64.20
5192;DHT22;2615;44.524;11.284;2023-02-28T05:51:37;5.50;64.20
5192;DHT22;2615;44.524;11.284;2023-02-28T05:54:07;5.50;64.20
5192;DHT22;2615;44.524;11.284;2023-02-28T05:56:35;5.40;64.10
5192;DHT22;2615;44.524;11.284;2023-02-28T05:59:05;5.40;64.10
5192;DHT22;2615;44.524;11.284;2023-02-28T06:01:36;5.40;64.20
5192;DHT22;2615;44.524;11.284;2023-02-28T06:04:06;5.40;64.10
5192;DHT22;2615;44.524;11.284;2023-02-28T06:06:52;5.40;64.10
5192;DHT22;2615;44.524;11.284;2023-02-28T06:09:20;5.40;64.20
5192;DHT22;2615;44.524;11.284;2023-02-28T06:11:49;5.30;64.10
5192;DHT22;2615;44.524;11.284;2023-02-28T06:14:19;5.40;64.90
5192;DHT22;2615;44.524;11.284;2023-02-28T06:16:47;5.40;64.20
5192;DHT22;2615;44.524;11.284;2023-02-28T06:19:16;5.40;64.30
5192;DHT22;2615;44.524;11.284;2023-02-28T06:21:44;5.40;64.20
5192;DHT22;2615;44.524;11.284;2023-02-28T06:24:13;5.30;64.20
5192;DHT22;2615;44.524;11.284;2023-02-28T06:26:41;5.30;64.30
5192;DHT22;2615;44.524;11.284;2023-02-28T06:29:09;5.30;64.20
5192;DHT22;2615;44.524;11.284;2023-02-28T06:31:38;5.30;64.20
5192;DHT22;2615;44.524;11.284;2023-02-28T06:34:06;5.30;64.30
5192;DHT22;2615;44.524;11.284;2023-02-28T06:36:34;5.30;64.30
5192;DHT22;2615;44.524;11.284;2023-02-28T06:39:02;5.20;64.30
5192;DHT22;2615;44.524;11.284;2023-02-28T06:41:32;5.20;64.30
5192;DHT22;2615;44.524;11.284;2023-02-28T06:44:22;5.20;64.40
5192;DHT22;2615;44.524;11.284;2023-02-28T06:46:50;5.20;64.50
5192;DHT22;2615;44.524;11.284;2023-02-28T06:49:18;5.20;64.50
5192;DHT22;2615;44.524;11.284;2023-02-28T06:51:46;5.20;64.50
5192;DHT22;2615;44.524;11.284;2023-02-28T06:54:14;5.20;64.60
5192;DHT22;2615;44.524;11.284;2023-02-28T06:56:43;5.20;64.60
5192;DHT22;2615;44.524;11.284;2023-02-28T06:59:11;5.20;64.60
5192;DHT22;2615;44.524;11.284;2023-02-28T07:01:40;5.20;64.60
5192;DHT22;2615;44.524;11.284;2023-02-28T07:04:08;5.20;64.60
5192;DHT22;2615;44.524;11.284;2023-02-28T07:06:36;5.20;64.70
5192;DHT22;2615;44.524;11.284;2023-02-28T07:09:05;5.20;64.80
5192;DHT22;2615;44.524;11.284;2023-02-28T07:11:33;5.20;64.80
5192;DHT22;2615;44.524;11.284;2023-02-28T07:14:03;5.20;64.90
5192;DHT22;2615;44.524;11.284;2023-02-28T07:16:31;5.20;64.90
5192;DHT22;2615;44.524;11.284;2023-02-28T07:18:59;5.20;64.90
5192;DHT22;2615;44.524;11.284;2023-02-28T07:21:27;5.20;64.90
5192;DHT22;2615;44.524;11.284;2023-02-28T07:23:56;5.20;65.80
5192;DHT22;2615;44.524;11.284;2023-02-28T07:26:24;5.30;65.10
5192;DHT22;2615;44.524;11.284;2023-02-28T07:28:52;5.30;65.10
5192;DHT22;2615;44.524;11.284;2023-02-28T07:31:22;5.30;65.10
5192;DHT22;2615;44.524;11.284;2023-02-28T07:33:50;5.40;65.20
5192;DHT22;2615;44.524;11.284;2023-02-28T07:36:18;5.40;65.20
5192;DHT22;2615;44.524;11.284;2023-02-28T07:38:47;5.40;65.30
5192;DHT22;2615;44.524;11.284;2023-02-28T07:41:17;5.40;65.20
5192;DHT22;2615;44.524;11.284;2023-02-28T07:43:45;5.40;65.20
5192;DHT22;2615;44.524;11.284;2023-02-28T07:46:15;5.50;65.30
5192;DHT22;2615;44.524;11.284;2023-02-28T07:48:45;5.50;65.30
5192;DHT22;2615;44.524;11.284;2023-02-28T07:51:13;5.60;65.30
5192;DHT22;2615;44.524;11.284;2023-02-28T07:53:42;5.60;65.30
5192;DHT22;2615;44.524;11.284;2023-02-28T07:56:10;5.60;65.30
5192;DHT22;2615;44.524;11.284;2023-02-28T07:58:38;5.60;65.30
5192;DHT22;2615;44.524;11.284;2023-02-28T08:01:08;5.70;65.20
5192;DHT22;2615;44.524;11.284;2023-02-28T08:03:38;5.60;65.10
5192;DHT22;2615;44.524;11.284;2023-02-28T08:06:15;5.60;65.20
5192;DHT22;2615;44.524;11.284;2023-02-28T08:08:44;5.60;65.30
5192;DHT22;2615;44.524;11.284;2023-02-28T08:11:12;5.70;65.40
5192;DHT22;2615;44.524;11.284;2023-02-28T08:13:40;5.70;65.40
5192;DHT22;2615;44.524;11.284;2023-02-28T08:16:11;5.70;65.40
5192;DHT22;2615;44.524;11.284;2023-02-28T08:18:42;5.70;65.30
5192;DHT22;2615;44.524;11.284;2023-02-28T08:21:11;5.80;65.40
5192;DHT22;2615;44.524;11.284;2023-02-28T08:23:39;5.80;65.30
5192;DHT22;2615;44.524;11.284;2023-02-28T08:26:07;5.80;65.30
5192;DHT22;2615;44.524;11.284;2023-02-28T08:28:36;5.80;65.30
5192;DHT22;2615;44.524;11.284;2023-02-28T08:31:08;5.90;65.40
5192;DHT22;2615;44.524;11.284;2023-02-28T08:33:37;5.90;65.40
5192;DHT22;2615;44.524;11.284;2023-02-28T08:36:07;5.90;65.30
5192;DHT22;2615;44.524;11.284;2023-02-28T08:38:37;6.00;65.40
5192;DHT22;2615;44.524;11.284;2023-02-28T08:41:07;6.00;65.40
5192;DHT22;2615;44.524;11.284;2023-02-28T08:43:37;6.10;65.50
5192;DHT22;2615;44.524;11.284;2023-02-28T08:46:06;6.10;65.40
5192;DHT22;2615;44.524;11.284;2023-02-28T08:48:35;6.10;65.30
5192;DHT22;2615;44.524;11.284;2023-02-28T08:51:06;6.10;65.40
5192;DHT22;2615;44.524;11.284;2023-02-28T08:53:37;6.20;65.50
5192;DHT22;2615;44.524;11.284;2023-02-28T08:56:08;6.20;65.40
5192;DHT22;2615;44.524;11.284;2023-02-28T08:58:37;6.30;65.30
5192;DHT22;2615;44.524;11.284;2023-02-28T09:01:09;6.30;65.40
5192;DHT22;2615;44.524;11.284;2023-02-28T09:03:39;6.40;65.40
5192;DHT22;2615;44.524;11.284;2023-02-28T09:06:09;6.40;65.20
5192;DHT22;2615;44.524;11.284;2023-02-28T09:08:40;6.40;65.10
5192;DHT22;2615;44.524;11.284;2023-02-28T09:11:08;6.40;65.10
5192;DHT22;2615;44.524;11.284;2023-02-28T09:13:37;6.30;64.90
5192;DHT22;2615;44.524;11.284;2023-02-28T09:16:07;6.30;65.00
5192;DHT22;2615;44.524;11.284;2023-02-28T09:18:36;6.40;65.30
5192;DHT22;2615;44.524;11.284;2023-02-28T09:21:05;6.40;65.30
5192;DHT22;2615;44.524;11.284;2023-02-28T09:23:33;6.50;65.20
5192;DHT22;2615;44.524;11.284;2023-02-28T09:26:03;6.50;65.20
5192;DHT22;2615;44.524;11.284;2023-02-28T09:28:31;6.60;65.40
5192;DHT22;2615;44.524;11.284;2023-02-28T09:30:59;6.70;65.50
5192;DHT22;2615;44.524;11.284;2023-02-28T09:33:28;6.80;65.40
5192;DHT22;2615;44.524;11.284;2023-02-28T09:36:00;6.90;65.40
5192;DHT22;2615;44.524;11.284;2023-02-28T09:38:28;7.00;65.20
5192;DHT22;2615;44.524;11.284;2023-02-28T09:40:59;7.00;65.10
5192;DHT22;2615;44.524;11.284;2023-02-28T09:43:33;7.10;65.10
5192;DHT22;2615;44.524;11.284;2023-02-28T09:46:08;7.10;65.00
5192;DHT22;2615;44.524;11.284;2023-02-28T09:48:44;7.20;65.00
5192;DHT22;2615;44.524;11.284;2023-02-28T09:51:23;7.30;65.00
5192;DHT22;2615;44.524;11.284;2023-02-28T09:53:55;7.30;64.80
5192;DHT22;2615;44.524;11.284;2023-02-28T09:56:31;7.40;64.80
5192;DHT22;2615;44.524;11.284;2023-02-28T09:59:05;7.40;64.70
5192;DHT22;2615;44.524;11.284;2023-02-28T10:01:43;7.50;64.70
5192;DHT22;2615;44.524;11.284;2023-02-28T10:04:33;7.50;64.60
5192;DHT22;2615;44.524;11.284;2023-02-28T10:07:06;7.60;64.60
5192;DHT22;2615;44.524;11.284;2023-02-28T10:09:45;7.60;65.20
5192;DHT22;2615;44.524;11.284;2023-02-28T10:12:16;7.70;64.50
5192;DHT22;2615;44.524;11.284;2023-02-28T10:14:47;7.80;64.50
5192;DHT22;2615;44.524;11.284;2023-02-28T10:17:21;7.80;64.30
5192;DHT22;2615;44.524;11.284;2023-02-28T10:19:57;7.90;64.40
5192;DHT22;2615;44.524;11.284;2023-02-28T10:22:31;7.90;64.10
5192;DHT22;2615;44.524;11.284;2023-02-28T10:25:05;7.90;64.00
5192;DHT22;2615;44.524;11.284;2023-02-28T10:27:43;7.90;63.80
5192;DHT22;2615;44.524;11.284;2023-02-28T10:30:14;8.00;63.90
5192;DHT22;2615;44.524;11.284;2023-02-28T10:32:49;8.00;63.70
5192;DHT22;2615;44.524;11.284;2023-02-28T10:35:19;8.00;63.70
5192;DHT22;2615;44.524;11.284;2023-02-28T10:37:50;8.00;63.70
5192;DHT22;2615;44.524;11.284;2023-02-28T10:40:31;8.00;63.70
5192;DHT22;2615;44.524;11.284;2023-02-28T10:43:00;8.00;63.50
5192;DHT22;2615;44.524;11.284;2023-02-28T10:45:31;8.10;64.20
5192;DHT22;2615;44.524;11.284;2023-02-28T10:48:02;8.10;63.50
5192;DHT22;2615;44.524;11.284;2023-02-28T10:50:35;8.10;63.50
5192;DHT22;2615;44.524;11.284;2023-02-28T10:53:16;8.10;63.40
5192;DHT22;2615;44.524;11.284;2023-02-28T10:55:45;8.10;63.40
5192;DHT22;2615;44.524;11.284;2023-02-28T10:58:23;8.20;63.40
5192;DHT22;2615;44.524;11.284;2023-02-28T11:00:53;8.20;63.30
5192;DHT22;2615;44.524;11.284;2023-02-28T11:03:29;8.30;63.30
5192;DHT22;2615;44.524;11.284;2023-02-28T11:05:58;8.30;63.10
5192;DHT22;2615;44.524;11.284;2023-02-28T11:08:31;8.30;62.90
5192;DHT22;2615;44.524;11.284;2023-02-28T11:11:04;8.20;62.90
5192;DHT22;2615;44.524;11.284;2023-02-28T11:13:35;8.20;62.80
5192;DHT22;2615;44.524;11.284;2023-02-28T11:16:07;8.20;62.80
5192;DHT22;2615;44.524;11.284;2023-02-28T11:18:41;8.20;62.70
5192;DHT22;2615;44.524;11.284;2023-02-28T11:21:16;8.20;62.60
5192;DHT22;2615;44.524;11.284;2023-02-28T11:23:44;8.20;62.50
5192;DHT22;2615;44.524;11.284;2023-02-28T11:26:13;8.20;62.60
5192;DHT22;2615;44.524;11.284;2023-02-28T11:28:42;8.20;62.60
5192;DHT22;2615;44.524;11.284;2023-02-28T11:31:18;8.20;62.50
5192;DHT22;2615;44.524;11.284;2023-02-28T11:33:50;8.30;62.40
5192;DHT22;2615;44.524;11.284;2023-02-28T11:36:21;8.30;62.20
5192;DHT22;2615;44.524;11.284;2023-02-28T11:38:52;8.30;62.20
5192;DHT22;2615;44.524;11.284;2023-02-28T11:41:38;8.30;62.10
5192;DHT22;2615;44.524;11.284;2023-02-28T11:44:36;8.30;61.90
5192;DHT22;2615;44.524;11.284;2023-02-28T11:47:12;8.30;61.90
5192;DHT22;2615;44.524;11.284;2023-02-28T11:49:47;8.40;61.90
5192;DHT22;2615;44.524;11.284;2023-02-28T11:52:21;8.40;61.70
5192;DHT22;2615;44.524;11.284;2023-02-28T11:55:07;8.40;61.70
5192;DHT22;2615;44.524;11.284;2023-02-28T11:57:57;8.40;61.70
5192;DHT22;2615;44.524;11.284;2023-02-28T12:00:43;8.30;61.60
5192;DHT22;2615;44.524;11.284;2023-02-28T12:03:26;8.30;61.40
5192;DHT22;2615;44.524;11.284;2023-02-28T12:06:03;8.20;61.40
5192;DHT22;2615;44.524;11.284;2023-02-28T12:08:49;8.20;61.50
5192;DHT22;2615;44.524;11.284;2023-02-28T12:11:30;8.30;61.60
5192;DHT22;2615;44.524;11.284;2023-02-28T12:14:18;8.30;61.40
5192;DHT22;2615;44.524;11.284;2023-02-28T12:17:00;8.30;61.30
5192;DHT22;2615;44.524;11.284;2023-02-28T12:19:38;8.30;61.30
5192;DHT22;2615;44.524;11.284;2023-02-28T12:22:26;8.30;61.20
5192;DHT22;2615;44.524;11.284;2023-02-28T12:27:47;8.30;61.20
5192;DHT22;2615;44.524;11.284;2023-02-28T12:30:21;8.40;61.20
5192;DHT22;2615;44.524;11.284;2023-02-28T12:32:54;8.50;61.10
5192;DHT22;2615;44.524;11.284;2023-02-28T12:35:28;8.50;60.90
5192;DHT22;2615;44.524;11.284;2023-02-28T12:38:05;8.60;61.00
5192;DHT22;2615;44.524;11.284;2023-02-28T12:40:43;8.60;60.80
5192;DHT22;2615;44.524;11.284;2023-02-28T12:43:15;8.60;60.60
5192;DHT22;2615;44.524;11.284;2023-02-28T12:45:47;8.60;60.60
5192;DHT22;2615;44.524;11.284;2023-02-28T12:48:21;8.60;60.40
5192;DHT22;2615;44.524;11.284;2023-02-28T12:50:53;8.60;60.40
5192;DHT22;2615;44.524;11.284;2023-02-28T12:53:27;8.60;60.30
5192;DHT22;2615;44.524;11.284;2023-02-28T12:56:08;8.60;60.30
5192;DHT22;2615;44.524;11.284;2023-02-28T12:58:41;8.60;60.20
5192;DHT22;2615;44.524;11.284;2023-02-28T13:01:29;8.50;60.10
5192;DHT22;2615;44.524;11.284;2023-02-28T13:04:43;8.50;60.00
5192;DHT22;2615;44.524;11.284;2023-02-28T13:07:41;8.50;60.10
5192;DHT22;2615;44.524;11.284;2023-02-28T13:10:15;8.40;60.00
5192;DHT22;2615;44.524;11.284;2023-02-28T13:12:49;8.40;60.10
5192;DHT22;2615;44.524;11.284;2023-02-28T13:15:20;8.40;60.10
5192;DHT22;2615;44.524;11.284;2023-02-28T13:17:53;8.40;60.10
5192;DHT22;2615;44.524;11.284;2023-02-28T13:20:24;8.30;59.90
5192;DHT22;2615;44.524;11.284;2023-02-28T13:22:55;8.30;60.00
5192;DHT22;2615;44.524;11.284;2023-02-28T13:25:51;8.30;60.00
5192;DHT22;2615;44.524;11.284;2023-02-28T13:31:31;8.40;60.00
5192;DHT22;2615;44.524;11.284;2023-02-28T13:34:18;8.40;60.00
5192;DHT22;2615;44.524;11.284;2023-02-28T13:36:46;8.40;59.90
5192;DHT22;2615;44.524;11.284;2023-02-28T13:39:46;8.50;60.00
5192;DHT22;2615;44.524;11.284;2023-02-28T13:42:33;8.50;59.90
5192;DHT22;2615;44.524;11.284;2023-02-28T13:45:27;8.50;59.90
5192;DHT22;2615;44.524;11.284;2023-02-28T13:47:59;8.60;59.90
5192;DHT22;2615;44.524;11.284;2023-02-28T13:50:33;8.60;59.90
5192;DHT22;2615;44.524;11.284;2023-02-28T13:53:30;8.60;59.80
5192;DHT22;2615;44.524;11.284;2023-02-28T13:56:10;8.60;59.70
5192;DHT22;2615;44.524;11.284;2023-02-28T13:58:53;8.50;59.60
5192;DHT22;2615;44.524;11.284;2023-02-28T14:01:33;8.50;59.70
5192;DHT22;2615;44.524;11.284;2023-02-28T14:06:59;8.40;59.70
5192;DHT22;2615;44.524;11.284;2023-02-28T14:09:30;8.30;59.60
5192;DHT22;2615;44.524;11.284;2023-02-28T14:15:23;8.20;59.70
5192;DHT22;2615;44.524;11.284;2023-02-28T14:17:53;8.20;59.80
5192;DHT22;2615;44.524;11.284;2023-02-28T14:20:24;8.20;59.90
5192;DHT22;2615;44.524;11.284;2023-02-28T14:23:02;8.30;60.00
5192;DHT22;2615;44.524;11.284;2023-02-28T14:25:34;8.40;60.70
5192;DHT22;2615;44.524;11.284;2023-02-28T14:28:17;8.40;59.90
5192;DHT22;2615;44.524;11.284;2023-02-28T14:31:01;8.50;59.90
5192;DHT22;2615;44.524;11.284;2023-02-28T14:33:42;8.50;59.90
5192;DHT22;2615;44.524;11.284;2023-02-28T14:36:18;8.50;59.90
5192;DHT22;2615;44.524;11.284;2023-02-28T14:38:50;8.50;59.90
5192;DHT22;2615;44.524;11.284;2023-02-28T14:41:22;8.50;59.90
5192;DHT22;2615;44.524;11.284;2023-02-28T14:43:54;8.50;59.80
5192;DHT22;2615;44.524;11.284;2023-02-28T14:46:26;8.50;59.80
5192;DHT22;2615;44.524;11.284;2023-02-28T14:48:55;8.50;59.90
5192;DHT22;2615;44.524;11.284;2023-02-28T14:51:24;8.50;59.80
5192;DHT22;2615;44.524;11.284;2023-02-28T14:53:59;8.40;59.70
5192;DHT22;2615;44.524;11.284;2023-02-28T14:56:32;8.40;59.80
5192;DHT22;2615;44.524;11.284;2023-02-28T14:59:04;8.40;59.80
5192;DHT22;2615;44.524;11.284;2023-02-28T15:01:32;8.40;59.80
5192;DHT22;2615;44.524;11.284;2023-02-28T15:04:03;8.40;59.80
5192;DHT22;2615;44.524;11.284;2023-02-28T15:06:32;8.40;59.80
5192;DHT22;2615;44.524;11.284;2023-02-28T15:09:09;8.40;60.50
5192;DHT22;2615;44.524;11.284;2023-02-28T15:11:38;8.30;59.70
5192;DHT22;2615;44.524;11.284;2023-02-28T15:14:15;8.30;59.80
5192;DHT22;2615;44.524;11.284;2023-02-28T15:16:47;8.30;59.90
5192;DHT22;2615;44.524;11.284;2023-02-28T15:19:21;8.30;59.90
5192;DHT22;2615;44.524;11.284;2023-02-28T15:21:53;8.30;59.90
5192;DHT22;2615;44.524;11.284;2023-02-28T15:24:30;8.20;59.80
5192;DHT22;2615;44.524;11.284;2023-02-28T15:27:02;8.20;60.00
5192;DHT22;2615;44.524;11.284;2023-02-28T15:29:42;8.20;60.10
5192;DHT22;2615;44.524;11.284;2023-02-28T15:32:26;8.20;60.10
5192;DHT22;2615;44.524;11.284;2023-02-28T15:34:56;8.20;60.00
5192;DHT22;2615;44.524;11.284;2023-02-28T15:37:29;8.20;60.00
5192;DHT22;2615;44.524;11.284;2023-02-28T15:40:07;8.20;60.10
5192;DHT22;2615;44.524;11.284;2023-02-28T15:42:35;8.20;60.10
5192;DHT22;2615;44.524;11.284;2023-02-28T15:45:06;8.20;60.00
5192;DHT22;2615;44.524;11.284;2023-02-28T15:47:54;8.10;60.00
5192;DHT22;2615;44.524;11.284;2023-02-28T15:50:28;8.10;60.00
5192;DHT22;2615;44.524;11.284;2023-02-28T15:52:57;8.10;60.10
5192;DHT22;2615;44.524;11.284;2023-02-28T15:55:27;8.10;60.00
5192;DHT22;2615;44.524;11.284;2023-02-28T15:57:57;8.10;60.00
5192;DHT22;2615;44.524;11.284;2023-02-28T16:00:30;8.00;60.00
5192;DHT22;2615;44.524;11.284;2023-02-28T16:02:59;8.00;60.10
5192;DHT22;2615;44.524;11.284;2023-02-28T16:05:28;8.00;60.10
5192;DHT22;2615;44.524;11.284;2023-02-28T16:08:00;8.00;60.10
5192;DHT22;2615;44.524;11.284;2023-02-28T16:10:29;8.00;60.20
5192;DHT22;2615;44.524;11.284;2023-02-28T16:12:58;8.00;60.20
5192;DHT22;2615;44.524;11.284;2023-02-28T16:15:29;8.00;60.20
5192;DHT22;2615;44.524;11.284;2023-02-28T16:17:58;8.00;60.20
5192;DHT22;2615;44.524;11.284;2023-02-28T16:20:28;8.00;60.30
5192;DHT22;2615;44.524;11.284;2023-02-28T16:22:57;8.00;60.20
5192;DHT22;2615;44.524;11.284;2023-02-28T16:25:34;8.00;60.30
5192;DHT22;2615;44.524;11.284;2023-02-28T16:28:03;8.00;60.30
5192;DHT22;2615;44.524;11.284;2023-02-28T16:30:33;8.00;60.30
5192;DHT22;2615;44.524;11.284;2023-02-28T16:33:01;8.00;60.30
5192;DHT22;2615;44.524;11.284;2023-02-28T16:35:29;7.90;60.30
5192;DHT22;2615;44.524;11.284;2023-02-28T16:37:57;7.90;60.30
5192;DHT22;2615;44.524;11.284;2023-02-28T16:40:25;7.90;60.40
5192;DHT22;2615;44.524;11.284;2023-02-28T16:42:58;7.90;60.40
5192;DHT22;2615;44.524;11.284;2023-02-28T16:45:28;7.90;60.50
5192;DHT22;2615;44.524;11.284;2023-02-28T16:47:58;7.90;60.50
5192;DHT22;2615;44.524;11.284;2023-02-28T16:50:28;7.90;60.40
5192;DHT22;2615;44.524;11.284;2023-02-28T16:52:56;7.90;60.40
5192;DHT22;2615;44.524;11.284;2023-02-28T16:55:25;7.90;60.40